Time;durP1;ratioP1;P1;durP2;ratioP2;P2;SDS_P1;SDS_P2;PMS_P1;PMS_P2;Temp;Humidity;BMP_temperature;BMP_pressure;BME280_temperature;BME280_humidity;BME280_pressure;Samples;Min_cycle;Max_cycle;Signal;HPM_P1;HPM_P2
2021/12/31 00:10:37;;;;;;;33.50;16.35;;;;;;;6.81;100.00;99837.77;741208;1155;114037;-77
2021/12/31 00:25:41;;;;;;;27.38;13.83;;;;;;;6.87;100.00;99819.98;739707;1155;113457;-76
2021/12/31 00:40:44;;;;;;;27.60;13.90;;;;;;;7.06;100.00;99821.92;739910;1153;113502;-76
2021/12/31 00:55:47;;;;;;;51.00;24.63;;;;;;;7.04;100.00;99832.48;739842;1162;115122;-76
2021/12/31 01:10:49;;;;;;;30.65;14.80;;;;;;;7.03;100.00;99830.83;742226;1156;113589;-76
2021/12/31 01:25:51;;;;;;;25.68;12.98;;;;;;;7.02;100.00;99833.56;741161;1152;113941;-76
2021/12/31 01:40:54;;;;;;;20.50;11.45;;;;;;;7.03;100.00;99850.88;739717;1153;113673;-77
2021/12/31 01:55:58;;;;;;;23.80;12.33;;;;;;;7.21;100.00;99846.78;740099;1161;114992;-77
2021/12/31 02:11:00;;;;;;;19.78;10.53;;;;;;;7.47;100.00;99847.27;750571;1153;114044;-77
2021/12/31 02:26:02;;;;;;;23.88;13.45;;;;;;;7.55;100.00;99835.36;740952;1152;113590;-77
2021/12/31 02:41:05;;;;;;;35.28;16.88;;;;;;;7.72;100.00;99841.80;740318;1158;114093;-76
2021/12/31 02:56:10;;;;;;;67.43;27.85;;;;;;;7.89;100.00;99836.02;739683;1156;115438;-77
2021/12/31 03:11:18;;;;;;;32.15;16.88;;;;;;;8.05;100.00;99827.70;739678;1154;115256;-76
2021/12/31 03:26:21;;;;;;;21.85;10.05;;;;;;;8.21;100.00;99844.67;739586;1152;113558;-76
2021/12/31 03:41:24;;;;;;;23.65;9.75;;;;;;;8.39;100.00;99837.87;739875;1154;113650;-76
2021/12/31 03:56:30;;;;;;;31.30;10.45;;;;;;;8.47;100.00;99842.47;740351;1152;113389;-77
2021/12/31 04:11:33;;;;;;;33.35;11.50;;;;;;;8.72;100.00;99829.89;740203;1154;114171;-76
2021/12/31 04:26:35;;;;;;;15.90;7.47;;;;;;;8.78;100.00;99829.36;739850;1155;113567;-77
2021/12/31 04:41:40;;;;;;;17.15;8.10;;;;;;;8.96;100.00;99832.13;740008;1153;113520;-77
2021/12/31 04:56:56;;;;;;;13.83;7.67;;;;;;;9.18;100.00;99806.68;739987;1152;113598;-76
2021/12/31 05:13:02;;;;;;;14.60;7.40;;;;;;;9.32;100.00;99814.12;740616;1161;113341;-78
2021/12/31 07:58:41;;;;;;;23.60;12.53;;;;;;;10.16;100.00;99847.45;715790;1174;27271;-83
2021/12/31 08:13:45;;;;;;;21.98;10.93;;;;;;;10.13;100.00;99833.80;714540;1185;113166;-83
2021/12/31 08:28:47;;;;;;;890.93;536.20;;;;;;;10.12;100.00;99838.23;715081;1203;113920;-81
2021/12/31 08:43:49;;;;;;;67.85;43.70;;;;;;;10.14;100.00;99833.66;714566;1200;114416;-88
2021/12/31 08:58:52;;;;;;;49.37;30.67;;;;;;;10.29;100.00;99820.92;715669;1200;113980;-85
2021/12/31 09:13:55;;;;;;;44.65;27.75;;;;;;;10.47;100.00;99807.06;714952;1200;113809;-80
2021/12/31 09:28:58;;;;;;;143.40;66.97;;;;;;;10.64;100.00;99800.20;715170;1200;114359;-80
2021/12/31 09:44:00;;;;;;;73.73;38.55;;;;;;;10.77;100.00;99790.17;715010;1178;114516;-79
2021/12/31 09:59:02;;;;;;;72.40;35.90;;;;;;;10.98;100.00;99789.07;714467;1202;114093;-80
2021/12/31 10:14:05;;;;;;;203.43;73.13;;;;;;;11.25;100.00;99764.51;714550;1199;114437;-81
2021/12/31 10:29:08;;;;;;;80.23;33.90;;;;;;;11.49;100.00;99749.91;715967;1200;113962;-75
2021/12/31 10:44:11;;;;;;;38.68;20.68;;;;;;;11.72;100.00;99738.88;714813;1203;113992;-79
2021/12/31 10:59:13;;;;;;;31.40;19.23;;;;;;;11.83;100.00;99723.66;714522;1199;115069;-83
2021/12/31 11:14:16;;;;;;;36.30;18.65;;;;;;;11.95;100.00;99724.23;714831;1184;114999;-84
2021/12/31 11:29:19;;;;;;;27.43;16.05;;;;;;;12.10;100.00;99742.04;714722;1199;114208;-83
2021/12/31 11:44:24;;;;;;;37.63;20.20;;;;;;;12.27;100.00;99712.21;714539;1199;114135;-81
2021/12/31 11:59:36;;;;;;;32.78;17.40;;;;;;;12.34;100.00;99709.76;715025;1202;113906;-83
2021/12/31 12:14:42;;;;;;;31.20;16.20;;;;;;;12.31;100.00;99687.23;714431;1200;114492;-81
2021/12/31 12:29:44;;;;;;;22.70;12.50;;;;;;;12.24;100.00;99669.63;714665;1200;113708;-82
2021/12/31 12:45:05;;;;;;;38.78;25.20;;;;;;;12.26;100.00;99665.85;715106;1199;114207;-77
2021/12/31 13:00:10;;;;;;;40.43;20.00;;;;;;;12.30;100.00;99648.77;714562;1199;114567;-77
2021/12/31 13:15:12;;;;;;;30.43;16.50;;;;;;;12.39;100.00;99641.72;714804;1174;113922;-76
2021/12/31 13:30:15;;;;;;;25.70;14.30;;;;;;;12.33;100.00;99660.77;714251;1199;114471;-78
2021/12/31 13:45:22;;;;;;;34.07;18.37;;;;;;;12.32;100.00;99661.74;714392;1200;115250;-77
2021/12/31 14:00:28;;;;;;;23.68;13.00;;;;;;;12.30;100.00;99653.20;714716;1199;115391;-77
2021/12/31 14:15:36;;;;;;;34.90;20.15;;;;;;;12.33;100.00;99652.88;714510;1202;113978;-79
2021/12/31 14:30:39;;;;;;;43.53;22.20;;;;;;;12.46;100.00;99647.95;714789;1177;114359;-77
2021/12/31 14:45:42;;;;;;;35.85;19.20;;;;;;;12.42;100.00;99651.09;716550;1175;113991;-83
2021/12/31 15:00:45;;;;;;;94.13;44.68;;;;;;;12.49;100.00;99623.13;716035;1190;114461;-84
2021/12/31 15:15:48;;;;;;;50.60;25.97;;;;;;;12.52;100.00;99614.09;715380;1174;114359;-81
2021/12/31 15:30:50;;;;;;;37.00;19.70;;;;;;;12.49;100.00;99602.90;714525;1203;115459;-81
2021/12/31 15:45:53;;;;;;;33.15;19.63;;;;;;;12.42;100.00;99599.30;714376;1199;115556;-75
2021/12/31 16:00:55;;;;;;;45.43;25.93;;;;;;;12.40;100.00;99593.36;714933;1200;115039;-76
2021/12/31 16:15:57;;;;;;;55.53;30.10;;;;;;;12.56;100.00;99591.73;714421;1200;113821;-75
2021/12/31 16:30:59;;;;;;;78.80;31.33;;;;;;;12.59;100.00;99583.50;714618;1175;115706;-75
2021/12/31 16:46:02;;;;;;;40.20;21.25;;;;;;;12.60;100.00;99571.98;714568;1198;114208;-81
2021/12/31 17:01:04;;;;;;;58.63;31.65;;;;;;;12.52;100.00;99575.44;716081;1199;114014;-81
2021/12/31 17:16:07;;;;;;;39.70;21.48;;;;;;;12.48;100.00;99558.34;714944;1174;113804;-83
2021/12/31 17:31:10;;;;;;;30.38;17.45;;;;;;;12.46;100.00;99563.78;716410;1178;114416;-82
2021/12/31 17:46:17;;;;;;;51.10;23.35;;;;;;;12.45;100.00;99564.77;716686;1200;113796;-81
2021/12/31 18:01:19;;;;;;;43.03;20.77;;;;;;;12.40;100.00;99553.91;716699;1199;114212;-83
2021/12/31 18:16:22;;;;;;;66.08;26.45;;;;;;;12.40;100.00;99561.80;716758;1200;114189;-84
2021/12/31 18:31:24;;;;;;;49.88;23.45;;;;;;;12.42;100.00;99570.36;716357;1178;113265;-80
2021/12/31 18:46:31;;;;;;;34.75;21.40;;;;;;;12.33;100.00;99573.98;715184;1178;114450;-80
2021/12/31 19:01:34;;;;;;;30.83;19.70;;;;;;;12.28;100.00;99560.50;714580;1177;114036;-80
2021/12/31 19:16:36;;;;;;;26.05;17.28;;;;;;;12.30;100.00;99564.61;715256;1174;114054;-81
2021/12/31 19:31:39;;;;;;;28.40;15.08;;;;;;;12.31;100.00;99596.97;715269;1174;114327;-81
2021/12/31 19:46:41;;;;;;;56.00;20.73;;;;;;;12.29;100.00;99614.73;714682;1181;113160;-79
2021/12/31 20:01:43;;;;;;;29.07;13.57;;;;;;;12.17;100.00;99635.27;714812;1175;113857;-81
2021/12/31 20:16:46;;;;;;;17.95;11.43;;;;;;;12.08;100.00;99660.70;714903;1177;114128;-81
2021/12/31 20:31:48;;;;;;;21.95;14.10;;;;;;;12.16;100.00;99675.68;714872;1176;113855;-79
2021/12/31 20:46:50;;;;;;;26.30;13.70;;;;;;;12.14;100.00;99706.55;714590;1178;113988;-79
2021/12/31 21:01:53;;;;;;;18.03;10.23;;;;;;;11.89;100.00;99721.38;714583;1178;113963;-79
2021/12/31 21:16:55;;;;;;;14.13;8.30;;;;;;;11.78;100.00;99720.67;716175;1175;113991;-80
2021/12/31 21:31:59;;;;;;;17.80;9.55;;;;;;;11.68;100.00;99729.66;716549;1200;115412;-79
2021/12/31 21:47:04;;;;;;;13.75;6.80;;;;;;;11.55;100.00;99753.73;714253;1174;113731;-75
2021/12/31 22:02:07;;;;;;;13.40;7.60;;;;;;;11.49;100.00;99770.92;714405;1200;115693;-74
2021/12/31 22:17:09;;;;;;;14.20;8.30;;;;;;;11.55;100.00;99803.65;714271;1177;113956;-75
2021/12/31 22:32:12;;;;;;;13.50;8.00;;;;;;;11.44;100.00;99813.41;714145;1174;114571;-73
2021/12/31 22:47:14;;;;;;;52.18;21.10;;;;;;;11.36;100.00;99818.58;714294;1203;114766;-74
2021/12/31 23:02:16;;;;;;;191.00;94.58;;;;;;;11.29;100.00;99838.55;714354;1177;114620;-75
2021/12/31 23:17:18;;;;;;;62.18;35.28;;;;;;;11.27;100.00;99824.73;714270;1174;114944;-74
2021/12/31 23:32:21;;;;;;;43.50;24.25;;;;;;;11.14;100.00;99846.95;714721;1203;113988;-81
2021/12/31 23:47:23;;;;;;;29.80;18.93;;;;;;;11.11;100.00;99856.92;717857;1178;113927;-81
